Terminal Aerodrome Forecast
Issued by NWS Jackson, KY

Home | Current Version | Previous Version | Graphics & Text | Print | Product List | Glossary On
Versions: 1 2 3 4 5 6 7 8 9 10 11 12 13 14
000
FTUS43 KJKL 022336
TAFLOZ
TAF
KLOZ 022336Z 0300/0324 VRB03KT P6SM FEW050
     FM030900 00000KT 4SM BR SKC
     FM031300 VRB03KT P6SM SKC
     FM031500 VRB05KT P6SM SCT050=

USA.gov is the U.S. government's official web portal to all federal, state and local government web resources and services.